sensor_id;sensor_type;location;lat;lon;timestamp;P1;durP1;ratioP1;P2;durP2;ratioP2
14520;SDS011;7347;50.844;4.490;2023-01-15T13:31:02;1.23;;;0.50;;
14520;SDS011;7347;50.844;4.490;2023-01-15T13:33:39;1.70;;;0.40;;
14520;SDS011;7347;50.844;4.490;2023-01-15T13:36:11;2.73;;;0.30;;
14520;SDS011;7347;50.844;4.490;2023-01-15T13:38:40;3.57;;;0.60;;
14520;SDS011;7347;50.844;4.490;2023-01-15T13:41:11;1.13;;;0.60;;
14520;SDS011;7347;50.844;4.490;2023-01-15T13:44:10;1.70;;;0.50;;
14520;SDS011;7347;50.844;4.490;2023-01-15T13:46:42;2.27;;;0.40;;
14520;SDS011;7347;50.844;4.490;2023-01-15T13:49:15;0.70;;;0.30;;
14520;SDS011;7347;50.844;4.490;2023-01-15T13:51:45;0.80;;;0.40;;
14520;SDS011;7347;50.844;4.490;2023-01-15T13:54:14;2.13;;;0.70;;
14520;SDS011;7347;50.844;4.490;2023-01-15T13:56:44;0.70;;;0.30;;
14520;SDS011;7347;50.844;4.490;2023-01-15T14:02:00;3.27;;;0.50;;
14520;SDS011;7347;50.844;4.490;2023-01-15T14:04:38;0.60;;;0.30;;
14520;SDS011;7347;50.844;4.490;2023-01-15T14:07:15;2.00;;;0.43;;
14520;SDS011;7347;50.844;4.490;2023-01-15T14:09:44;2.10;;;0.43;;
14520;SDS011;7347;50.844;4.490;2023-01-15T14:12:13;2.50;;;0.60;;
14520;SDS011;7347;50.844;4.490;2023-01-15T14:17:59;1.60;;;0.70;;
14520;SDS011;7347;50.844;4.490;2023-01-15T14:20:50;4.40;;;1.33;;
14520;SDS011;7347;50.844;4.490;2023-01-15T14:23:48;0.77;;;0.50;;
14520;SDS011;7347;50.844;4.490;2023-01-15T14:26:39;1.07;;;0.50;;
14520;SDS011;7347;50.844;4.490;2023-01-15T14:29:22;0.93;;;0.57;;
14520;SDS011;7347;50.844;4.490;2023-01-15T14:32:01;2.00;;;0.80;;
14520;SDS011;7347;50.844;4.490;2023-01-15T14:34:33;3.03;;;0.70;;
14520;SDS011;7347;50.844;4.490;2023-01-15T14:37:01;1.37;;;0.80;;
14520;SDS011;7347;50.844;4.490;2023-01-15T14:39:39;1.80;;;0.70;;
14520;SDS011;7347;50.844;4.490;2023-01-15T14:42:13;1.40;;;0.30;;
14520;SDS011;7347;50.844;4.490;2023-01-15T14:45:01;4.43;;;0.70;;
14520;SDS011;7347;50.844;4.490;2023-01-15T14:47:33;3.70;;;0.60;;
14520;SDS011;7347;50.844;4.490;2023-01-15T14:52:59;1.37;;;0.67;;
14520;SDS011;7347;50.844;4.490;2023-01-15T14:55:29;4.93;;;0.43;;
14520;SDS011;7347;50.844;4.490;2023-01-15T14:57:58;1.67;;;0.43;;
14520;SDS011;7347;50.844;4.490;2023-01-15T15:00:29;2.87;;;0.63;;
14520;SDS011;7347;50.844;4.490;2023-01-15T15:03:01;1.53;;;0.40;;
14520;SDS011;7347;50.844;4.490;2023-01-15T15:05:30;0.73;;;0.40;;
14520;SDS011;7347;50.844;4.490;2023-01-15T15:07:59;1.30;;;0.50;;
14520;SDS011;7347;50.844;4.490;2023-01-15T15:10:30;4.93;;;0.60;;
14520;SDS011;7347;50.844;4.490;2023-01-15T15:13:01;1.17;;;0.33;;
14520;SDS011;7347;50.844;4.490;2023-01-15T15:15:36;3.00;;;0.70;;
14520;SDS011;7347;50.844;4.490;2023-01-15T15:18:12;3.30;;;0.50;;
14520;SDS011;7347;50.844;4.490;2023-01-15T15:20:50;0.93;;;0.50;;
14520;SDS011;7347;50.844;4.490;2023-01-15T15:23:25;2.03;;;0.50;;
14520;SDS011;7347;50.844;4.490;2023-01-15T15:25:57;2.40;;;0.60;;
14520;SDS011;7347;50.844;4.490;2023-01-15T15:28:25;3.70;;;0.50;;
14520;SDS011;7347;50.844;4.490;2023-01-15T15:30:54;5.17;;;0.73;;
14520;SDS011;7347;50.844;4.490;2023-01-15T15:33:29;1.23;;;0.50;;
14520;SDS011;7347;50.844;4.490;2023-01-15T15:36:02;1.97;;;0.57;;
14520;SDS011;7347;50.844;4.490;2023-01-15T15:38:30;2.20;;;0.70;;
14520;SDS011;7347;50.844;4.490;2023-01-15T15:40:58;2.67;;;0.97;;
14520;SDS011;7347;50.844;4.490;2023-01-15T15:43:28;3.00;;;0.57;;
14520;SDS011;7347;50.844;4.490;2023-01-15T15:46:24;0.40;;;0.30;;
14520;SDS011;7347;50.844;4.490;2023-01-15T15:49:12;1.53;;;0.50;;
14520;SDS011;7347;50.844;4.490;2023-01-15T15:51:43;1.50;;;0.50;;
14520;SDS011;7347;50.844;4.490;2023-01-15T15:54:14;3.03;;;0.70;;
14520;SDS011;7347;50.844;4.490;2023-01-15T15:56:46;1.83;;;0.40;;
14520;SDS011;7347;50.844;4.490;2023-01-15T15:59:18;5.00;;;0.80;;
14520;SDS011;7347;50.844;4.490;2023-01-15T16:01:52;4.13;;;1.00;;
14520;SDS011;7347;50.844;4.490;2023-01-15T16:04:21;4.17;;;0.80;;
14520;SDS011;7347;50.844;4.490;2023-01-15T16:06:48;1.90;;;0.50;;
14520;SDS011;7347;50.844;4.490;2023-01-15T16:09:18;0.67;;;0.40;;
14520;SDS011;7347;50.844;4.490;2023-01-15T16:11:47;1.20;;;0.50;;
14520;SDS011;7347;50.844;4.490;2023-01-15T16:14:15;2.53;;;0.43;;
14520;SDS011;7347;50.844;4.490;2023-01-15T16:16:43;2.47;;;0.83;;
14520;SDS011;7347;50.844;4.490;2023-01-15T16:19:12;4.83;;;0.80;;
14520;SDS011;7347;50.844;4.490;2023-01-15T16:21:45;1.77;;;0.60;;
14520;SDS011;7347;50.844;4.490;2023-01-15T16:24:22;2.27;;;0.53;;
14520;SDS011;7347;50.844;4.490;2023-01-15T16:26:52;3.00;;;0.60;;
14520;SDS011;7347;50.844;4.490;2023-01-15T16:29:23;1.37;;;0.40;;
14520;SDS011;7347;50.844;4.490;2023-01-15T16:31:53;2.77;;;0.60;;
14520;SDS011;7347;50.844;4.490;2023-01-15T16:34:23;3.77;;;1.20;;
14520;SDS011;7347;50.844;4.490;2023-01-15T16:36:54;6.23;;;0.80;;
14520;SDS011;7347;50.844;4.490;2023-01-15T16:39:22;3.97;;;0.83;;
14520;SDS011;7347;50.844;4.490;2023-01-15T16:41:53;4.00;;;1.30;;
14520;SDS011;7347;50.844;4.490;2023-01-15T16:44:24;3.63;;;1.00;;
14520;SDS011;7347;50.844;4.490;2023-01-15T16:46:56;3.07;;;1.30;;
14520;SDS011;7347;50.844;4.490;2023-01-15T16:49:26;2.60;;;1.30;;
14520;SDS011;7347;50.844;4.490;2023-01-15T16:51:55;6.93;;;1.43;;
14520;SDS011;7347;50.844;4.490;2023-01-15T16:54:39;3.37;;;1.10;;
14520;SDS011;7347;50.844;4.490;2023-01-15T17:00:09;5.07;;;1.47;;
14520;SDS011;7347;50.844;4.490;2023-01-15T17:02:54;3.03;;;1.43;;
14520;SDS011;7347;50.844;4.490;2023-01-15T17:05:22;2.20;;;0.93;;
14520;SDS011;7347;50.844;4.490;2023-01-15T17:07:51;4.70;;;1.10;;
14520;SDS011;7347;50.844;4.490;2023-01-15T17:10:21;5.80;;;1.60;;
14520;SDS011;7347;50.844;4.490;2023-01-15T17:12:49;6.77;;;1.77;;
14520;SDS011;7347;50.844;4.490;2023-01-15T17:15:28;4.90;;;1.60;;
14520;SDS011;7347;50.844;4.490;2023-01-15T17:18:17;3.63;;;1.70;;
14520;SDS011;7347;50.844;4.490;2023-01-15T17:20:46;2.60;;;1.20;;
14520;SDS011;7347;50.844;4.490;2023-01-15T17:23:14;5.30;;;1.20;;
14520;SDS011;7347;50.844;4.490;2023-01-15T17:25:43;4.20;;;1.27;;
14520;SDS011;7347;50.844;4.490;2023-01-15T17:28:12;1.67;;;0.93;;
14520;SDS011;7347;50.844;4.490;2023-01-15T17:30:40;3.83;;;0.83;;
14520;SDS011;7347;50.844;4.490;2023-01-15T17:33:09;3.07;;;0.70;;
14520;SDS011;7347;50.844;4.490;2023-01-15T17:35:38;4.40;;;1.00;;
14520;SDS011;7347;50.844;4.490;2023-01-15T17:38:05;4.47;;;1.10;;
14520;SDS011;7347;50.844;4.490;2023-01-15T17:40:37;2.20;;;1.00;;
14520;SDS011;7347;50.844;4.490;2023-01-15T17:43:04;4.47;;;1.07;;
14520;SDS011;7347;50.844;4.490;2023-01-15T17:45:33;4.00;;;1.10;;
14520;SDS011;7347;50.844;4.490;2023-01-15T17:48:00;2.43;;;1.27;;
14520;SDS011;7347;50.844;4.490;2023-01-15T17:50:28;5.50;;;1.50;;
14520;SDS011;7347;50.844;4.490;2023-01-15T17:52:55;4.83;;;1.10;;
14520;SDS011;7347;50.844;4.490;2023-01-15T17:55:22;2.80;;;0.97;;
14520;SDS011;7347;50.844;4.490;2023-01-15T17:58:09;5.20;;;0.70;;
14520;SDS011;7347;50.844;4.490;2023-01-15T18:00:54;3.43;;;1.30;;
14520;SDS011;7347;50.844;4.490;2023-01-15T18:03:41;4.90;;;1.07;;
14520;SDS011;7347;50.844;4.490;2023-01-15T18:06:29;4.13;;;1.00;;
14520;SDS011;7347;50.844;4.490;2023-01-15T18:08:58;2.83;;;0.73;;
14520;SDS011;7347;50.844;4.490;2023-01-15T18:11:27;5.97;;;2.83;;
14520;SDS011;7347;50.844;4.490;2023-01-15T18:13:56;5.23;;;1.30;;
14520;SDS011;7347;50.844;4.490;2023-01-15T18:16:23;3.37;;;1.00;;
14520;SDS011;7347;50.844;4.490;2023-01-15T18:18:51;4.10;;;0.70;;
14520;SDS011;7347;50.844;4.490;2023-01-15T18:21:18;1.97;;;0.87;;
14520;SDS011;7347;50.844;4.490;2023-01-15T18:23:45;4.37;;;0.87;;
14520;SDS011;7347;50.844;4.490;2023-01-15T18:26:12;4.57;;;0.83;;
14520;SDS011;7347;50.844;4.490;2023-01-15T18:28:39;2.80;;;1.00;;
14520;SDS011;7347;50.844;4.490;2023-01-15T18:31:08;3.63;;;1.17;;
14520;SDS011;7347;50.844;4.490;2023-01-15T18:33:35;1.63;;;0.70;;
14520;SDS011;7347;50.844;4.490;2023-01-15T18:36:03;4.57;;;1.20;;
14520;SDS011;7347;50.844;4.490;2023-01-15T18:38:32;2.33;;;1.10;;
14520;SDS011;7347;50.844;4.490;2023-01-15T18:41:06;1.33;;;1.17;;
14520;SDS011;7347;50.844;4.490;2023-01-15T18:43:34;5.60;;;1.83;;
14520;SDS011;7347;50.844;4.490;2023-01-15T18:46:20;3.00;;;1.30;;
14520;SDS011;7347;50.844;4.490;2023-01-15T18:49:04;10.00;;;1.80;;
14520;SDS011;7347;50.844;4.490;2023-01-15T18:51:31;4.53;;;1.90;;
14520;SDS011;7347;50.844;4.490;2023-01-15T18:53:58;7.30;;;2.00;;
14520;SDS011;7347;50.844;4.490;2023-01-15T18:56:24;9.63;;;1.93;;
14520;SDS011;7347;50.844;4.490;2023-01-15T18:59:12;2.83;;;1.27;;
14520;SDS011;7347;50.844;4.490;2023-01-15T19:01:41;1.83;;;0.80;;
14520;SDS011;7347;50.844;4.490;2023-01-15T19:04:07;5.67;;;1.30;;
14520;SDS011;7347;50.844;4.490;2023-01-15T19:06:35;3.67;;;0.80;;
14520;SDS011;7347;50.844;4.490;2023-01-15T19:09:02;4.47;;;1.00;;
14520;SDS011;7347;50.844;4.490;2023-01-15T19:11:30;6.30;;;1.83;;
14520;SDS011;7347;50.844;4.490;2023-01-15T19:13:57;3.67;;;0.90;;
14520;SDS011;7347;50.844;4.490;2023-01-15T19:16:43;4.70;;;0.87;;
14520;SDS011;7347;50.844;4.490;2023-01-15T19:19:27;4.03;;;0.50;;
14520;SDS011;7347;50.844;4.490;2023-01-15T19:21:54;4.00;;;0.70;;
14520;SDS011;7347;50.844;4.490;2023-01-15T19:24:39;4.23;;;0.70;;
14520;SDS011;7347;50.844;4.490;2023-01-15T19:27:06;2.07;;;0.60;;
14520;SDS011;7347;50.844;4.490;2023-01-15T19:29:33;0.90;;;0.40;;
14520;SDS011;7347;50.844;4.490;2023-01-15T19:32:01;3.13;;;0.80;;
14520;SDS011;7347;50.844;4.490;2023-01-15T19:34:29;6.50;;;1.00;;
14520;SDS011;7347;50.844;4.490;2023-01-15T19:36:56;2.57;;;0.73;;
14520;SDS011;7347;50.844;4.490;2023-01-15T19:39:23;3.07;;;0.90;;
14520;SDS011;7347;50.844;4.490;2023-01-15T19:41:51;3.57;;;0.90;;
14520;SDS011;7347;50.844;4.490;2023-01-15T19:44:35;5.87;;;1.10;;
14520;SDS011;7347;50.844;4.490;2023-01-15T19:47:22;2.60;;;0.70;;
14520;SDS011;7347;50.844;4.490;2023-01-15T19:50:11;5.13;;;0.97;;
14520;SDS011;7347;50.844;4.490;2023-01-15T19:52:44;2.10;;;0.80;;
14520;SDS011;7347;50.844;4.490;2023-01-15T19:55:12;2.60;;;0.90;;
14520;SDS011;7347;50.844;4.490;2023-01-15T19:57:40;4.03;;;0.70;;
14520;SDS011;7347;50.844;4.490;2023-01-15T20:00:08;2.27;;;0.90;;
14520;SDS011;7347;50.844;4.490;2023-01-15T20:02:38;3.37;;;0.87;;
14520;SDS011;7347;50.844;4.490;2023-01-15T20:05:06;4.20;;;1.10;;
14520;SDS011;7347;50.844;4.490;2023-01-15T20:07:34;3.17;;;1.33;;
14520;SDS011;7347;50.844;4.490;2023-01-15T20:10:02;4.60;;;1.03;;
14520;SDS011;7347;50.844;4.490;2023-01-15T20:12:29;2.30;;;0.60;;
14520;SDS011;7347;50.844;4.490;2023-01-15T20:15:14;1.27;;;0.53;;
14520;SDS011;7347;50.844;4.490;2023-01-15T20:17:43;5.83;;;1.00;;
14520;SDS011;7347;50.844;4.490;2023-01-15T20:20:10;2.87;;;1.00;;
14520;SDS011;7347;50.844;4.490;2023-01-15T20:22:37;7.47;;;1.67;;
14520;SDS011;7347;50.844;4.490;2023-01-15T20:25:04;5.70;;;1.23;;
14520;SDS011;7347;50.844;4.490;2023-01-15T20:27:34;3.50;;;0.40;;
14520;SDS011;7347;50.844;4.490;2023-01-15T20:30:04;7.20;;;0.47;;
14520;SDS011;7347;50.844;4.490;2023-01-15T20:32:33;0.73;;;0.30;;
14520;SDS011;7347;50.844;4.490;2023-01-15T20:35:01;2.47;;;1.00;;
14520;SDS011;7347;50.844;4.490;2023-01-15T20:37:29;6.13;;;0.50;;
14520;SDS011;7347;50.844;4.490;2023-01-15T20:39:56;1.60;;;0.63;;
14520;SDS011;7347;50.844;4.490;2023-01-15T20:42:23;3.33;;;0.60;;
14520;SDS011;7347;50.844;4.490;2023-01-15T20:45:07;1.33;;;0.73;;
14520;SDS011;7347;50.844;4.490;2023-01-15T20:47:36;2.83;;;0.63;;
14520;SDS011;7347;50.844;4.490;2023-01-15T20:50:23;3.03;;;0.57;;
14520;SDS011;7347;50.844;4.490;2023-01-15T20:52:52;2.63;;;0.40;;
14520;SDS011;7347;50.844;4.490;2023-01-15T20:55:20;0.70;;;0.40;;
14520;SDS011;7347;50.844;4.490;2023-01-15T20:57:48;0.80;;;0.37;;
14520;SDS011;7347;50.844;4.490;2023-01-15T21:00:16;8.17;;;0.80;;
14520;SDS011;7347;50.844;4.490;2023-01-15T21:02:44;0.83;;;0.40;;
14520;SDS011;7347;50.844;4.490;2023-01-15T21:05:11;6.73;;;0.60;;
14520;SDS011;7347;50.844;4.490;2023-01-15T21:07:40;5.23;;;0.50;;
14520;SDS011;7347;50.844;4.490;2023-01-15T21:10:08;1.33;;;0.50;;
14520;SDS011;7347;50.844;4.490;2023-01-15T21:12:37;5.80;;;0.63;;
14520;SDS011;7347;50.844;4.490;2023-01-15T21:15:04;0.97;;;0.37;;
14520;SDS011;7347;50.844;4.490;2023-01-15T21:17:32;4.40;;;0.40;;
14520;SDS011;7347;50.844;4.490;2023-01-15T21:19:59;2.20;;;0.50;;
14520;SDS011;7347;50.844;4.490;2023-01-15T21:22:27;0.53;;;0.30;;
14520;SDS011;7347;50.844;4.490;2023-01-15T21:24:55;0.83;;;0.30;;
14520;SDS011;7347;50.844;4.490;2023-01-15T21:27:22;3.57;;;0.77;;
14520;SDS011;7347;50.844;4.490;2023-01-15T21:29:49;1.70;;;0.53;;
14520;SDS011;7347;50.844;4.490;2023-01-15T21:32:16;1.73;;;0.70;;
14520;SDS011;7347;50.844;4.490;2023-01-15T21:34:43;2.20;;;0.37;;
14520;SDS011;7347;50.844;4.490;2023-01-15T21:37:10;2.20;;;0.40;;
14520;SDS011;7347;50.844;4.490;2023-01-15T21:39:36;1.90;;;0.40;;
14520;SDS011;7347;50.844;4.490;2023-01-15T21:42:05;4.77;;;0.70;;
14520;SDS011;7347;50.844;4.490;2023-01-15T21:44:49;0.47;;;0.20;;
14520;SDS011;7347;50.844;4.490;2023-01-15T21:47:17;1.80;;;0.50;;
14520;SDS011;7347;50.844;4.490;2023-01-15T21:49:44;3.90;;;0.60;;
14520;SDS011;7347;50.844;4.490;2023-01-15T21:52:12;0.57;;;0.40;;
14520;SDS011;7347;50.844;4.490;2023-01-15T21:54:40;1.13;;;0.50;;
14520;SDS011;7347;50.844;4.490;2023-01-15T21:57:09;3.13;;;0.60;;
14520;SDS011;7347;50.844;4.490;2023-01-15T21:59:37;4.87;;;0.50;;
14520;SDS011;7347;50.844;4.490;2023-01-15T22:02:05;1.13;;;0.40;;
14520;SDS011;7347;50.844;4.490;2023-01-15T22:04:35;1.77;;;0.40;;
14520;SDS011;7347;50.844;4.490;2023-01-15T22:07:02;1.50;;;0.43;;
14520;SDS011;7347;50.844;4.490;2023-01-15T22:09:29;1.80;;;0.60;;
14520;SDS011;7347;50.844;4.490;2023-01-15T22:11:55;0.93;;;0.50;;
14520;SDS011;7347;50.844;4.490;2023-01-15T22:14:25;1.10;;;0.50;;
14520;SDS011;7347;50.844;4.490;2023-01-15T22:16:53;0.53;;;0.37;;
14520;SDS011;7347;50.844;4.490;2023-01-15T22:19:23;1.70;;;0.60;;
14520;SDS011;7347;50.844;4.490;2023-01-15T22:21:52;1.50;;;0.40;;
14520;SDS011;7347;50.844;4.490;2023-01-15T22:24:21;0.90;;;0.37;;
14520;SDS011;7347;50.844;4.490;2023-01-15T22:26:51;0.67;;;0.30;;
14520;SDS011;7347;50.844;4.490;2023-01-15T22:29:19;3.97;;;0.40;;
14520;SDS011;7347;50.844;4.490;2023-01-15T22:31:47;1.63;;;0.50;;
14520;SDS011;7347;50.844;4.490;2023-01-15T22:34:15;1.63;;;0.80;;
14520;SDS011;7347;50.844;4.490;2023-01-15T22:36:42;0.70;;;0.40;;
14520;SDS011;7347;50.844;4.490;2023-01-15T22:39:09;1.77;;;0.50;;
14520;SDS011;7347;50.844;4.490;2023-01-15T22:41:36;1.03;;;0.40;;
14520;SDS011;7347;50.844;4.490;2023-01-15T22:44:20;1.50;;;0.60;;
14520;SDS011;7347;50.844;4.490;2023-01-15T22:46:48;1.30;;;0.30;;
14520;SDS011;7347;50.844;4.490;2023-01-15T22:49:18;2.87;;;0.70;;
14520;SDS011;7347;50.844;4.490;2023-01-15T22:51:45;0.70;;;0.30;;
14520;SDS011;7347;50.844;4.490;2023-01-15T22:54:11;2.40;;;0.40;;
14520;SDS011;7347;50.844;4.490;2023-01-15T22:56:38;0.87;;;0.50;;
14520;SDS011;7347;50.844;4.490;2023-01-15T22:59:05;1.23;;;0.47;;
14520;SDS011;7347;50.844;4.490;2023-01-15T23:01:32;0.70;;;0.40;;
14520;SDS011;7347;50.844;4.490;2023-01-15T23:04:01;2.27;;;0.40;;
